sensor_id;sensor_type;location;lat;lon;timestamp;temperature;humidity
16273;DHT22;8244;50.044;9.006;2022-09-25T00:00:07;14.10;99.90
16273;DHT22;8244;50.044;9.006;2022-09-25T00:05:09;14.10;99.90
16273;DHT22;8244;50.044;9.006;2022-09-25T00:10:10;14.10;99.90
16273;DHT22;8244;50.044;9.006;2022-09-25T00:15:13;14.10;99.90
16273;DHT22;8244;50.044;9.006;2022-09-25T00:20:16;14.00;99.90
16273;DHT22;8244;50.044;9.006;2022-09-25T00:25:19;14.00;99.90
16273;DHT22;8244;50.044;9.006;2022-09-25T00:30:22;14.00;99.90
16273;DHT22;8244;50.044;9.006;2022-09-25T00:35:24;13.90;99.90
16273;DHT22;8244;50.044;9.006;2022-09-25T00:40:25;13.90;99.90
16273;DHT22;8244;50.044;9.006;2022-09-25T00:45:29;13.90;99.90
16273;DHT22;8244;50.044;9.006;2022-09-25T00:50:34;13.90;99.90
16273;DHT22;8244;50.044;9.006;2022-09-25T00:55:37;13.90;99.90
16273;DHT22;8244;50.044;9.006;2022-09-25T01:00:42;13.90;99.90
16273;DHT22;8244;50.044;9.006;2022-09-25T01:05:45;13.90;99.90
16273;DHT22;8244;50.044;9.006;2022-09-25T01:10:49;13.80;99.90
16273;DHT22;8244;50.044;9.006;2022-09-25T01:15:57;13.80;99.90
16273;DHT22;8244;50.044;9.006;2022-09-25T01:21:16;13.70;99.90
16273;DHT22;8244;50.044;9.006;2022-09-25T01:26:48;13.70;99.90
16273;DHT22;8244;50.044;9.006;2022-09-25T01:31:59;13.70;99.90
16273;DHT22;8244;50.044;9.006;2022-09-25T01:37:07;13.70;99.90
16273;DHT22;8244;50.044;9.006;2022-09-25T01:42:17;13.70;99.90
16273;DHT22;8244;50.044;9.006;2022-09-25T01:47:25;13.70;99.90
16273;DHT22;8244;50.044;9.006;2022-09-25T01:52:31;13.70;99.90
16273;DHT22;8244;50.044;9.006;2022-09-25T01:57:40;13.70;99.90
16273;DHT22;8244;50.044;9.006;2022-09-25T02:02:46;13.70;99.90
16273;DHT22;8244;50.044;9.006;2022-09-25T02:07:53;13.70;99.90
16273;DHT22;8244;50.044;9.006;2022-09-25T02:12:57;13.60;99.90
16273;DHT22;8244;50.044;9.006;2022-09-25T02:18:05;13.60;99.90
16273;DHT22;8244;50.044;9.006;2022-09-25T02:23:28;13.60;99.90
16273;DHT22;8244;50.044;9.006;2022-09-25T02:28:33;13.50;99.90
16273;DHT22;8244;50.044;9.006;2022-09-25T02:33:36;13.50;99.90
16273;DHT22;8244;50.044;9.006;2022-09-25T02:38:38;13.50;99.90
16273;DHT22;8244;50.044;9.006;2022-09-25T02:43:49;13.50;99.90
16273;DHT22;8244;50.044;9.006;2022-09-25T02:49:04;13.50;99.90
16273;DHT22;8244;50.044;9.006;2022-09-25T02:54:13;13.50;99.90
16273;DHT22;8244;50.044;9.006;2022-09-25T02:59:23;13.60;99.90
16273;DHT22;8244;50.044;9.006;2022-09-25T03:04:30;13.50;99.90
16273;DHT22;8244;50.044;9.006;2022-09-25T03:09:38;13.50;99.90
16273;DHT22;8244;50.044;9.006;2022-09-25T03:14:42;13.50;99.90
16273;DHT22;8244;50.044;9.006;2022-09-25T03:19:45;13.50;99.90
16273;DHT22;8244;50.044;9.006;2022-09-25T03:24:46;13.50;99.90
16273;DHT22;8244;50.044;9.006;2022-09-25T03:29:48;13.50;99.90
16273;DHT22;8244;50.044;9.006;2022-09-25T03:34:51;13.40;99.90
16273;DHT22;8244;50.044;9.006;2022-09-25T03:39:53;13.40;99.90
16273;DHT22;8244;50.044;9.006;2022-09-25T03:44:55;13.50;99.90
16273;DHT22;8244;50.044;9.006;2022-09-25T03:49:58;13.40;99.90
16273;DHT22;8244;50.044;9.006;2022-09-25T03:54:59;13.40;99.90
16273;DHT22;8244;50.044;9.006;2022-09-25T04:00:01;13.50;99.90
16273;DHT22;8244;50.044;9.006;2022-09-25T04:05:05;13.50;99.90
16273;DHT22;8244;50.044;9.006;2022-09-25T04:10:07;13.40;99.90
16273;DHT22;8244;50.044;9.006;2022-09-25T04:15:09;13.40;99.90
16273;DHT22;8244;50.044;9.006;2022-09-25T04:20:13;13.50;99.90
16273;DHT22;8244;50.044;9.006;2022-09-25T04:25:14;13.40;99.90
16273;DHT22;8244;50.044;9.006;2022-09-25T04:30:16;13.40;99.90
16273;DHT22;8244;50.044;9.006;2022-09-25T04:35:19;13.40;99.90
16273;DHT22;8244;50.044;9.006;2022-09-25T04:40:21;13.40;99.90
16273;DHT22;8244;50.044;9.006;2022-09-25T04:45:23;13.40;99.90
16273;DHT22;8244;50.044;9.006;2022-09-25T04:50:28;13.40;99.90
16273;DHT22;8244;50.044;9.006;2022-09-25T04:55:30;13.40;99.90
16273;DHT22;8244;50.044;9.006;2022-09-25T05:00:32;13.30;99.90
16273;DHT22;8244;50.044;9.006;2022-09-25T05:05:35;13.40;99.90
16273;DHT22;8244;50.044;9.006;2022-09-25T05:10:37;13.30;99.90
16273;DHT22;8244;50.044;9.006;2022-09-25T05:15:40;13.30;99.90
16273;DHT22;8244;50.044;9.006;2022-09-25T05:20:43;13.30;99.90
16273;DHT22;8244;50.044;9.006;2022-09-25T05:25:50;13.30;99.90
16273;DHT22;8244;50.044;9.006;2022-09-25T05:30:52;13.30;99.90
16273;DHT22;8244;50.044;9.006;2022-09-25T05:35:59;13.30;99.90
16273;DHT22;8244;50.044;9.006;2022-09-25T05:41:01;13.30;99.90
16273;DHT22;8244;50.044;9.006;2022-09-25T05:46:04;13.30;99.90
16273;DHT22;8244;50.044;9.006;2022-09-25T05:51:07;13.30;99.90
16273;DHT22;8244;50.044;9.006;2022-09-25T05:56:09;13.30;99.90
16273;DHT22;8244;50.044;9.006;2022-09-25T06:01:11;13.30;99.90
16273;DHT22;8244;50.044;9.006;2022-09-25T06:06:14;13.30;99.90
16273;DHT22;8244;50.044;9.006;2022-09-25T06:11:16;13.40;99.90
16273;DHT22;8244;50.044;9.006;2022-09-25T06:16:18;13.40;99.90
16273;DHT22;8244;50.044;9.006;2022-09-25T06:21:21;13.40;99.90
16273;DHT22;8244;50.044;9.006;2022-09-25T06:26:23;13.40;99.90
16273;DHT22;8244;50.044;9.006;2022-09-25T06:31:25;13.40;99.90
16273;DHT22;8244;50.044;9.006;2022-09-25T06:36:28;13.40;99.90
16273;DHT22;8244;50.044;9.006;2022-09-25T06:41:30;13.40;99.90
16273;DHT22;8244;50.044;9.006;2022-09-25T06:46:32;13.50;99.90
16273;DHT22;8244;50.044;9.006;2022-09-25T06:51:35;13.50;99.90
16273;DHT22;8244;50.044;9.006;2022-09-25T06:56:38;13.50;99.90
16273;DHT22;8244;50.044;9.006;2022-09-25T07:01:40;13.50;99.90
16273;DHT22;8244;50.044;9.006;2022-09-25T07:06:43;13.50;99.90
16273;DHT22;8244;50.044;9.006;2022-09-25T07:11:45;13.60;99.90
16273;DHT22;8244;50.044;9.006;2022-09-25T07:16:48;13.60;99.90
16273;DHT22;8244;50.044;9.006;2022-09-25T07:21:51;13.60;99.90
16273;DHT22;8244;50.044;9.006;2022-09-25T07:26:54;13.60;99.90
16273;DHT22;8244;50.044;9.006;2022-09-25T07:31:56;13.60;99.90
16273;DHT22;8244;50.044;9.006;2022-09-25T07:37:00;13.60;99.90
16273;DHT22;8244;50.044;9.006;2022-09-25T07:42:02;13.60;99.90
16273;DHT22;8244;50.044;9.006;2022-09-25T07:47:04;13.60;99.90
16273;DHT22;8244;50.044;9.006;2022-09-25T07:52:07;13.70;99.90
16273;DHT22;8244;50.044;9.006;2022-09-25T07:57:09;13.70;99.90
16273;DHT22;8244;50.044;9.006;2022-09-25T08:02:13;13.80;99.90
16273;DHT22;8244;50.044;9.006;2022-09-25T08:07:16;13.90;99.90
16273;DHT22;8244;50.044;9.006;2022-09-25T08:12:18;13.90;99.90
16273;DHT22;8244;50.044;9.006;2022-09-25T08:17:23;13.90;99.90
16273;DHT22;8244;50.044;9.006;2022-09-25T08:22:26;13.90;99.90
16273;DHT22;8244;50.044;9.006;2022-09-25T08:27:28;14.00;99.90
16273;DHT22;8244;50.044;9.006;2022-09-25T08:32:32;14.00;99.90
16273;DHT22;8244;50.044;9.006;2022-09-25T08:37:39;14.00;99.90
16273;DHT22;8244;50.044;9.006;2022-09-25T08:42:42;14.00;99.90
16273;DHT22;8244;50.044;9.006;2022-09-25T08:47:44;14.00;99.90
16273;DHT22;8244;50.044;9.006;2022-09-25T08:53:08;14.00;99.90
16273;DHT22;8244;50.044;9.006;2022-09-25T08:58:12;14.00;99.90
16273;DHT22;8244;50.044;9.006;2022-09-25T09:03:18;14.10;99.90
16273;DHT22;8244;50.044;9.006;2022-09-25T09:08:24;14.20;99.90
16273;DHT22;8244;50.044;9.006;2022-09-25T09:13:33;14.20;99.90
16273;DHT22;8244;50.044;9.006;2022-09-25T09:18:38;14.40;99.90
16273;DHT22;8244;50.044;9.006;2022-09-25T09:23:47;14.60;99.90
16273;DHT22;8244;50.044;9.006;2022-09-25T09:29:11;14.80;99.90
16273;DHT22;8244;50.044;9.006;2022-09-25T09:34:41;15.20;99.90
16273;DHT22;8244;50.044;9.006;2022-09-25T09:39:54;15.60;99.90
16273;DHT22;8244;50.044;9.006;2022-09-25T09:45:05;15.90;99.90
16273;DHT22;8244;50.044;9.006;2022-09-25T09:50:20;16.20;99.90
16273;DHT22;8244;50.044;9.006;2022-09-25T09:55:32;16.30;99.90
16273;DHT22;8244;50.044;9.006;2022-09-25T10:00:35;16.40;99.90
16273;DHT22;8244;50.044;9.006;2022-09-25T10:05:41;16.40;99.90
16273;DHT22;8244;50.044;9.006;2022-09-25T10:10:50;16.30;99.90
16273;DHT22;8244;50.044;9.006;2022-09-25T10:15:56;16.10;99.90
16273;DHT22;8244;50.044;9.006;2022-09-25T10:21:04;16.10;99.90
16273;DHT22;8244;50.044;9.006;2022-09-25T10:26:26;16.20;99.90
16273;DHT22;8244;50.044;9.006;2022-09-25T10:31:30;16.20;99.90
16273;DHT22;8244;50.044;9.006;2022-09-25T10:36:43;16.30;99.90
16273;DHT22;8244;50.044;9.006;2022-09-25T10:41:47;16.40;99.90
16273;DHT22;8244;50.044;9.006;2022-09-25T10:46:49;16.60;99.90
16273;DHT22;8244;50.044;9.006;2022-09-25T10:52:09;16.70;99.90
16273;DHT22;8244;50.044;9.006;2022-09-25T10:57:25;16.80;99.90
16273;DHT22;8244;50.044;9.006;2022-09-25T11:02:40;17.00;99.90
16273;DHT22;8244;50.044;9.006;2022-09-25T11:07:45;17.10;99.90
16273;DHT22;8244;50.044;9.006;2022-09-25T11:12:56;17.20;99.90
16273;DHT22;8244;50.044;9.006;2022-09-25T11:17:58;17.40;99.90
16273;DHT22;8244;50.044;9.006;2022-09-25T11:23:21;17.50;99.90
16273;DHT22;8244;50.044;9.006;2022-09-25T11:28:32;17.60;99.90
16273;DHT22;8244;50.044;9.006;2022-09-25T11:33:41;18.00;99.90
16273;DHT22;8244;50.044;9.006;2022-09-25T11:38:46;18.20;99.90
16273;DHT22;8244;50.044;9.006;2022-09-25T11:44:20;18.30;99.90
16273;DHT22;8244;50.044;9.006;2022-09-25T11:49:26;18.50;99.90
16273;DHT22;8244;50.044;9.006;2022-09-25T11:54:35;18.30;99.90
16273;DHT22;8244;50.044;9.006;2022-09-25T12:00:03;18.00;99.90
16273;DHT22;8244;50.044;9.006;2022-09-25T12:05:21;17.60;99.90
16273;DHT22;8244;50.044;9.006;2022-09-25T12:10:37;17.30;99.90
16273;DHT22;8244;50.044;9.006;2022-09-25T12:15:50;17.00;99.90
16273;DHT22;8244;50.044;9.006;2022-09-25T12:20:58;16.90;99.90
16273;DHT22;8244;50.044;9.006;2022-09-25T12:26:09;16.80;99.90
16273;DHT22;8244;50.044;9.006;2022-09-25T12:31:21;16.50;99.90
16273;DHT22;8244;50.044;9.006;2022-09-25T12:36:31;16.30;99.90
16273;DHT22;8244;50.044;9.006;2022-09-25T12:41:40;16.10;99.90
16273;DHT22;8244;50.044;9.006;2022-09-25T12:46:48;15.90;99.90
16273;DHT22;8244;50.044;9.006;2022-09-25T12:51:58;15.70;99.90
16273;DHT22;8244;50.044;9.006;2022-09-25T12:57:09;15.50;99.90
16273;DHT22;8244;50.044;9.006;2022-09-25T13:02:19;15.40;99.90
16273;DHT22;8244;50.044;9.006;2022-09-25T13:07:26;15.40;99.90
16273;DHT22;8244;50.044;9.006;2022-09-25T13:12:32;15.30;99.90
16273;DHT22;8244;50.044;9.006;2022-09-25T13:17:35;15.30;99.90
16273;DHT22;8244;50.044;9.006;2022-09-25T13:22:39;15.20;99.90
16273;DHT22;8244;50.044;9.006;2022-09-25T13:27:44;15.00;99.90
16273;DHT22;8244;50.044;9.006;2022-09-25T13:32:49;14.90;99.90
16273;DHT22;8244;50.044;9.006;2022-09-25T13:37:53;14.90;99.90
16273;DHT22;8244;50.044;9.006;2022-09-25T13:43:15;14.80;99.90
16273;DHT22;8244;50.044;9.006;2022-09-25T13:48:34;14.70;99.90
16273;DHT22;8244;50.044;9.006;2022-09-25T13:53:52;14.70;99.90
16273;DHT22;8244;50.044;9.006;2022-09-25T13:59:20;14.70;99.90
16273;DHT22;8244;50.044;9.006;2022-09-25T14:04:28;14.60;99.90
16273;DHT22;8244;50.044;9.006;2022-09-25T14:09:31;14.60;99.90
16273;DHT22;8244;50.044;9.006;2022-09-25T14:14:41;14.60;99.90
16273;DHT22;8244;50.044;9.006;2022-09-25T14:19:47;14.50;99.90
16273;DHT22;8244;50.044;9.006;2022-09-25T14:24:50;14.50;99.90
16273;DHT22;8244;50.044;9.006;2022-09-25T14:30:03;14.40;99.90
16273;DHT22;8244;50.044;9.006;2022-09-25T14:35:21;14.50;99.90
16273;DHT22;8244;50.044;9.006;2022-09-25T14:40:29;14.50;99.90
16273;DHT22;8244;50.044;9.006;2022-09-25T14:45:53;14.40;99.90
16273;DHT22;8244;50.044;9.006;2022-09-25T14:50:58;14.40;99.90
16273;DHT22;8244;50.044;9.006;2022-09-25T14:56:02;14.40;99.90
16273;DHT22;8244;50.044;9.006;2022-09-25T15:01:11;14.40;99.90
16273;DHT22;8244;50.044;9.006;2022-09-25T15:06:24;14.50;99.90
16273;DHT22;8244;50.044;9.006;2022-09-25T15:11:39;14.50;99.90
16273;DHT22;8244;50.044;9.006;2022-09-25T15:16:41;14.60;99.90
16273;DHT22;8244;50.044;9.006;2022-09-25T15:22:07;14.60;99.90
16273;DHT22;8244;50.044;9.006;2022-09-25T15:27:12;14.70;99.90
16273;DHT22;8244;50.044;9.006;2022-09-25T15:32:17;14.70;99.90
16273;DHT22;8244;50.044;9.006;2022-09-25T15:37:26;14.70;99.90
16273;DHT22;8244;50.044;9.006;2022-09-25T15:42:28;14.80;99.90
16273;DHT22;8244;50.044;9.006;2022-09-25T15:47:48;14.80;99.90
16273;DHT22;8244;50.044;9.006;2022-09-25T15:52:55;14.80;99.90
16273;DHT22;8244;50.044;9.006;2022-09-25T15:58:04;14.80;99.90
16273;DHT22;8244;50.044;9.006;2022-09-25T16:03:13;14.80;99.90
16273;DHT22;8244;50.044;9.006;2022-09-25T16:08:36;14.80;99.90
16273;DHT22;8244;50.044;9.006;2022-09-25T16:13:40;14.80;99.90
16273;DHT22;8244;50.044;9.006;2022-09-25T16:18:43;14.80;99.90
16273;DHT22;8244;50.044;9.006;2022-09-25T16:23:52;14.80;99.90
16273;DHT22;8244;50.044;9.006;2022-09-25T16:29:00;14.70;99.90
16273;DHT22;8244;50.044;9.006;2022-09-25T16:34:03;14.70;99.90
16273;DHT22;8244;50.044;9.006;2022-09-25T16:39:22;14.70;99.90
16273;DHT22;8244;50.044;9.006;2022-09-25T16:44:36;14.70;99.90
16273;DHT22;8244;50.044;9.006;2022-09-25T16:49:38;14.60;99.90
16273;DHT22;8244;50.044;9.006;2022-09-25T16:54:44;14.60;99.90
16273;DHT22;8244;50.044;9.006;2022-09-25T16:59:46;14.50;99.90
16273;DHT22;8244;50.044;9.006;2022-09-25T17:04:48;14.50;99.90
16273;DHT22;8244;50.044;9.006;2022-09-25T17:09:51;14.40;99.90
16273;DHT22;8244;50.044;9.006;2022-09-25T17:14:54;14.30;99.90
16273;DHT22;8244;50.044;9.006;2022-09-25T17:19:55;14.30;99.90
16273;DHT22;8244;50.044;9.006;2022-09-25T17:25:01;14.20;99.90
16273;DHT22;8244;50.044;9.006;2022-09-25T17:30:07;14.10;99.90
16273;DHT22;8244;50.044;9.006;2022-09-25T17:35:26;14.10;99.90
16273;DHT22;8244;50.044;9.006;2022-09-25T17:40:31;14.00;99.90
16273;DHT22;8244;50.044;9.006;2022-09-25T17:45:37;14.00;99.90
16273;DHT22;8244;50.044;9.006;2022-09-25T17:50:39;14.00;99.90
16273;DHT22;8244;50.044;9.006;2022-09-25T17:55:42;13.90;99.90
16273;DHT22;8244;50.044;9.006;2022-09-25T18:00:46;13.90;99.90
16273;DHT22;8244;50.044;9.006;2022-09-25T18:05:48;13.80;99.90
16273;DHT22;8244;50.044;9.006;2022-09-25T18:10:53;13.80;99.90
16273;DHT22;8244;50.044;9.006;2022-09-25T18:15:57;13.80;99.90
16273;DHT22;8244;50.044;9.006;2022-09-25T18:20:59;13.80;99.90
16273;DHT22;8244;50.044;9.006;2022-09-25T18:26:19;13.70;99.90
16273;DHT22;8244;50.044;9.006;2022-09-25T18:31:21;13.70;99.90
16273;DHT22;8244;50.044;9.006;2022-09-25T18:36:23;13.70;99.90
16273;DHT22;8244;50.044;9.006;2022-09-25T18:41:27;13.60;99.90
16273;DHT22;8244;50.044;9.006;2022-09-25T18:46:30;13.60;99.90
16273;DHT22;8244;50.044;9.006;2022-09-25T18:51:32;13.50;99.90
16273;DHT22;8244;50.044;9.006;2022-09-25T18:56:35;13.50;99.90
16273;DHT22;8244;50.044;9.006;2022-09-25T19:01:38;13.50;99.90
16273;DHT22;8244;50.044;9.006;2022-09-25T19:06:40;13.40;99.90
16273;DHT22;8244;50.044;9.006;2022-09-25T19:11:43;13.40;99.90
16273;DHT22;8244;50.044;9.006;2022-09-25T19:16:45;13.40;99.90
16273;DHT22;8244;50.044;9.006;2022-09-25T19:21:47;13.30;99.90
16273;DHT22;8244;50.044;9.006;2022-09-25T19:26:50;13.30;99.90
16273;DHT22;8244;50.044;9.006;2022-09-25T19:31:52;13.20;99.90
16273;DHT22;8244;50.044;9.006;2022-09-25T19:36:54;13.20;99.90
16273;DHT22;8244;50.044;9.006;2022-09-25T19:41:58;13.20;99.90
16273;DHT22;8244;50.044;9.006;2022-09-25T19:46:59;13.10;99.90
16273;DHT22;8244;50.044;9.006;2022-09-25T19:52:01;13.10;99.90
16273;DHT22;8244;50.044;9.006;2022-09-25T19:57:04;13.10;99.90
16273;DHT22;8244;50.044;9.006;2022-09-25T20:02:08;13.00;99.90
16273;DHT22;8244;50.044;9.006;2022-09-25T20:07:13;13.00;99.90
16273;DHT22;8244;50.044;9.006;2022-09-25T20:12:16;12.90;99.90
16273;DHT22;8244;50.044;9.006;2022-09-25T20:17:17;12.90;99.90
16273;DHT22;8244;50.044;9.006;2022-09-25T20:22:19;12.90;99.90
16273;DHT22;8244;50.044;9.006;2022-09-25T20:27:22;12.80;99.90
16273;DHT22;8244;50.044;9.006;2022-09-25T20:32:25;12.80;99.90
16273;DHT22;8244;50.044;9.006;2022-09-25T20:37:27;12.80;99.90
16273;DHT22;8244;50.044;9.006;2022-09-25T20:42:30;12.80;99.90
16273;DHT22;8244;50.044;9.006;2022-09-25T20:47:33;12.70;99.90
16273;DHT22;8244;50.044;9.006;2022-09-25T20:52:35;12.70;99.90
16273;DHT22;8244;50.044;9.006;2022-09-25T20:57:39;12.60;99.90
16273;DHT22;8244;50.044;9.006;2022-09-25T21:02:41;12.50;99.90
16273;DHT22;8244;50.044;9.006;2022-09-25T21:07:42;12.40;99.90
16273;DHT22;8244;50.044;9.006;2022-09-25T21:12:45;12.40;99.90
16273;DHT22;8244;50.044;9.006;2022-09-25T21:17:47;12.30;99.90
16273;DHT22;8244;50.044;9.006;2022-09-25T21:22:49;12.20;99.90
16273;DHT22;8244;50.044;9.006;2022-09-25T21:27:53;12.10;99.90
16273;DHT22;8244;50.044;9.006;2022-09-25T21:32:54;12.00;99.90
16273;DHT22;8244;50.044;9.006;2022-09-25T21:37:56;11.80;99.90
16273;DHT22;8244;50.044;9.006;2022-09-25T21:42:59;11.70;99.90
16273;DHT22;8244;50.044;9.006;2022-09-25T21:48:01;11.50;99.90
16273;DHT22;8244;50.044;9.006;2022-09-25T21:53:02;11.40;99.90
16273;DHT22;8244;50.044;9.006;2022-09-25T21:58:06;11.30;99.90
16273;DHT22;8244;50.044;9.006;2022-09-25T22:03:08;11.20;99.90
16273;DHT22;8244;50.044;9.006;2022-09-25T22:08:10;11.00;99.90
16273;DHT22;8244;50.044;9.006;2022-09-25T22:13:13;10.90;99.90
16273;DHT22;8244;50.044;9.006;2022-09-25T22:18:14;10.80;99.90
16273;DHT22;8244;50.044;9.006;2022-09-25T22:23:16;10.70;99.90
16273;DHT22;8244;50.044;9.006;2022-09-25T22:28:21;10.60;99.90
16273;DHT22;8244;50.044;9.006;2022-09-25T22:33:23;10.50;99.90
16273;DHT22;8244;50.044;9.006;2022-09-25T22:38:24;10.40;99.90
16273;DHT22;8244;50.044;9.006;2022-09-25T22:43:27;10.30;99.90
16273;DHT22;8244;50.044;9.006;2022-09-25T22:48:29;10.20;99.90
16273;DHT22;8244;50.044;9.006;2022-09-25T22:53:32;10.20;99.90
16273;DHT22;8244;50.044;9.006;2022-09-25T22:58:35;10.10;99.90
16273;DHT22;8244;50.044;9.006;2022-09-25T23:03:37;10.10;99.90
16273;DHT22;8244;50.044;9.006;2022-09-25T23:08:39;10.00;99.90
16273;DHT22;8244;50.044;9.006;2022-09-25T23:13:42;9.90;99.90
16273;DHT22;8244;50.044;9.006;2022-09-25T23:18:44;9.90;99.90
16273;DHT22;8244;50.044;9.006;2022-09-25T23:23:46;9.80;99.90
16273;DHT22;8244;50.044;9.006;2022-09-25T23:28:49;9.70;99.90
16273;DHT22;8244;50.044;9.006;2022-09-25T23:33:50;9.70;99.90
16273;DHT22;8244;50.044;9.006;2022-09-25T23:38:54;9.60;99.90
16273;DHT22;8244;50.044;9.006;2022-09-25T23:43:58;9.60;99.90
16273;DHT22;8244;50.044;9.006;2022-09-25T23:49:00;9.50;99.90
16273;DHT22;8244;50.044;9.006;2022-09-25T23:54:02;9.50;99.90
16273;DHT22;8244;50.044;9.006;2022-09-25T23:59:05;9.50;99.90
